sensor_id;sensor_type;location;lat;lon;timestamp;P1;durP1;ratioP1;P2;durP2;ratioP2
7669;SDS011;3877;42.562;27.636;2022-11-20T00:00:15;23.17;;;4.65;;
7669;SDS011;3877;42.562;27.636;2022-11-20T00:02:43;17.40;;;4.30;;
7669;SDS011;3877;42.562;27.636;2022-11-20T00:05:09;19.67;;;4.53;;
7669;SDS011;3877;42.562;27.636;2022-11-20T00:07:38;13.55;;;5.10;;
7669;SDS011;3877;42.562;27.636;2022-11-20T00:10:05;18.35;;;4.85;;
7669;SDS011;3877;42.562;27.636;2022-11-20T00:12:32;18.63;;;4.55;;
7669;SDS011;3877;42.562;27.636;2022-11-20T00:14:58;14.50;;;4.25;;
7669;SDS011;3877;42.562;27.636;2022-11-20T00:17:26;16.35;;;4.20;;
7669;SDS011;3877;42.562;27.636;2022-11-20T00:19:52;16.73;;;4.40;;
7669;SDS011;3877;42.562;27.636;2022-11-20T00:22:19;18.98;;;4.28;;
7669;SDS011;3877;42.562;27.636;2022-11-20T00:24:48;17.05;;;4.35;;
7669;SDS011;3877;42.562;27.636;2022-11-20T00:27:14;17.83;;;4.00;;
7669;SDS011;3877;42.562;27.636;2022-11-20T00:29:41;17.00;;;4.30;;
7669;SDS011;3877;42.562;27.636;2022-11-20T00:32:08;18.17;;;3.85;;
7669;SDS011;3877;42.562;27.636;2022-11-20T00:34:35;21.80;;;4.72;;
7669;SDS011;3877;42.562;27.636;2022-11-20T00:37:02;13.93;;;3.83;;
7669;SDS011;3877;42.562;27.636;2022-11-20T00:39:29;17.00;;;4.32;;
7669;SDS011;3877;42.562;27.636;2022-11-20T00:41:57;23.10;;;4.40;;
7669;SDS011;3877;42.562;27.636;2022-11-20T00:44:24;13.38;;;3.33;;
7669;SDS011;3877;42.562;27.636;2022-11-20T00:46:51;18.17;;;4.45;;
7669;SDS011;3877;42.562;27.636;2022-11-20T00:49:18;17.10;;;4.32;;
7669;SDS011;3877;42.562;27.636;2022-11-20T00:51:45;18.25;;;4.47;;
7669;SDS011;3877;42.562;27.636;2022-11-20T00:54:12;17.15;;;4.07;;
7669;SDS011;3877;42.562;27.636;2022-11-20T00:56:39;14.48;;;3.67;;
7669;SDS011;3877;42.562;27.636;2022-11-20T00:59:08;16.08;;;3.30;;
7669;SDS011;3877;42.562;27.636;2022-11-20T01:01:35;13.60;;;4.20;;
7669;SDS011;3877;42.562;27.636;2022-11-20T01:04:02;15.25;;;4.47;;
7669;SDS011;3877;42.562;27.636;2022-11-20T01:06:29;13.52;;;3.95;;
7669;SDS011;3877;42.562;27.636;2022-11-20T01:08:57;12.90;;;4.20;;
7669;SDS011;3877;42.562;27.636;2022-11-20T01:11:25;18.48;;;4.32;;
7669;SDS011;3877;42.562;27.636;2022-11-20T01:13:52;17.42;;;3.50;;
7669;SDS011;3877;42.562;27.636;2022-11-20T01:16:22;10.77;;;3.35;;
7669;SDS011;3877;42.562;27.636;2022-11-20T01:18:49;15.90;;;3.78;;
7669;SDS011;3877;42.562;27.636;2022-11-20T01:21:17;15.68;;;3.88;;
7669;SDS011;3877;42.562;27.636;2022-11-20T01:23:44;15.55;;;4.05;;
7669;SDS011;3877;42.562;27.636;2022-11-20T01:26:12;15.65;;;3.67;;
7669;SDS011;3877;42.562;27.636;2022-11-20T01:28:39;16.80;;;3.65;;
7669;SDS011;3877;42.562;27.636;2022-11-20T01:31:10;15.52;;;4.10;;
7669;SDS011;3877;42.562;27.636;2022-11-20T01:33:39;20.10;;;4.38;;
7669;SDS011;3877;42.562;27.636;2022-11-20T01:36:06;16.15;;;3.85;;
7669;SDS011;3877;42.562;27.636;2022-11-20T01:38:33;14.68;;;3.55;;
7669;SDS011;3877;42.562;27.636;2022-11-20T01:41:00;12.82;;;4.18;;
7669;SDS011;3877;42.562;27.636;2022-11-20T01:43:27;18.73;;;4.35;;
7669;SDS011;3877;42.562;27.636;2022-11-20T01:46:00;13.02;;;3.83;;
7669;SDS011;3877;42.562;27.636;2022-11-20T01:48:30;16.20;;;4.03;;
7669;SDS011;3877;42.562;27.636;2022-11-20T01:50:59;19.73;;;4.18;;
7669;SDS011;3877;42.562;27.636;2022-11-20T01:53:28;20.85;;;4.53;;
7669;SDS011;3877;42.562;27.636;2022-11-20T01:55:57;16.02;;;3.63;;
7669;SDS011;3877;42.562;27.636;2022-11-20T01:58:27;11.95;;;3.33;;
7669;SDS011;3877;42.562;27.636;2022-11-20T02:00:55;15.48;;;3.45;;
7669;SDS011;3877;42.562;27.636;2022-11-20T02:03:22;14.85;;;4.15;;
7669;SDS011;3877;42.562;27.636;2022-11-20T02:05:50;14.18;;;4.28;;
7669;SDS011;3877;42.562;27.636;2022-11-20T02:08:19;14.25;;;3.72;;
7669;SDS011;3877;42.562;27.636;2022-11-20T02:10:47;15.48;;;3.67;;
7669;SDS011;3877;42.562;27.636;2022-11-20T02:13:13;21.55;;;4.22;;
7669;SDS011;3877;42.562;27.636;2022-11-20T02:15:58;19.67;;;3.60;;
7669;SDS011;3877;42.562;27.636;2022-11-20T02:18:25;19.10;;;3.95;;
7669;SDS011;3877;42.562;27.636;2022-11-20T02:20:53;14.38;;;3.90;;
7669;SDS011;3877;42.562;27.636;2022-11-20T02:23:23;16.23;;;3.88;;
7669;SDS011;3877;42.562;27.636;2022-11-20T02:25:54;16.75;;;3.50;;
7669;SDS011;3877;42.562;27.636;2022-11-20T02:28:22;16.52;;;4.13;;
7669;SDS011;3877;42.562;27.636;2022-11-20T02:30:49;14.00;;;3.70;;
7669;SDS011;3877;42.562;27.636;2022-11-20T02:33:16;12.85;;;3.40;;
7669;SDS011;3877;42.562;27.636;2022-11-20T02:35:44;17.92;;;4.10;;
7669;SDS011;3877;42.562;27.636;2022-11-20T02:38:11;26.67;;;4.60;;
7669;SDS011;3877;42.562;27.636;2022-11-20T02:40:38;18.40;;;4.15;;
7669;SDS011;3877;42.562;27.636;2022-11-20T02:43:06;15.88;;;4.00;;
7669;SDS011;3877;42.562;27.636;2022-11-20T02:45:33;14.95;;;4.13;;
7669;SDS011;3877;42.562;27.636;2022-11-20T02:48:00;15.05;;;3.63;;
7669;SDS011;3877;42.562;27.636;2022-11-20T02:50:26;13.70;;;3.97;;
7669;SDS011;3877;42.562;27.636;2022-11-20T02:52:53;13.75;;;3.78;;
7669;SDS011;3877;42.562;27.636;2022-11-20T02:55:20;16.08;;;3.85;;
7669;SDS011;3877;42.562;27.636;2022-11-20T02:57:47;17.85;;;4.03;;
7669;SDS011;3877;42.562;27.636;2022-11-20T03:00:16;19.23;;;4.28;;
7669;SDS011;3877;42.562;27.636;2022-11-20T03:02:43;19.20;;;4.43;;
7669;SDS011;3877;42.562;27.636;2022-11-20T03:05:09;14.77;;;4.38;;
7669;SDS011;3877;42.562;27.636;2022-11-20T03:07:36;23.30;;;3.70;;
7669;SDS011;3877;42.562;27.636;2022-11-20T03:10:03;14.88;;;4.05;;
7669;SDS011;3877;42.562;27.636;2022-11-20T03:12:30;18.67;;;3.70;;
7669;SDS011;3877;42.562;27.636;2022-11-20T03:14:57;16.13;;;3.45;;
7669;SDS011;3877;42.562;27.636;2022-11-20T03:17:25;25.42;;;4.72;;
7669;SDS011;3877;42.562;27.636;2022-11-20T03:19:53;21.63;;;4.10;;
7669;SDS011;3877;42.562;27.636;2022-11-20T03:22:19;19.23;;;4.15;;
7669;SDS011;3877;42.562;27.636;2022-11-20T03:24:47;15.38;;;3.80;;
7669;SDS011;3877;42.562;27.636;2022-11-20T03:27:13;16.15;;;3.92;;
7669;SDS011;3877;42.562;27.636;2022-11-20T03:29:40;25.52;;;4.20;;
7669;SDS011;3877;42.562;27.636;2022-11-20T03:32:07;21.67;;;4.75;;
7669;SDS011;3877;42.562;27.636;2022-11-20T03:34:36;20.02;;;4.43;;
7669;SDS011;3877;42.562;27.636;2022-11-20T03:37:02;14.97;;;3.53;;
7669;SDS011;3877;42.562;27.636;2022-11-20T03:39:29;17.95;;;4.22;;
7669;SDS011;3877;42.562;27.636;2022-11-20T03:41:56;15.70;;;3.63;;
7669;SDS011;3877;42.562;27.636;2022-11-20T03:44:23;18.50;;;3.80;;
7669;SDS011;3877;42.562;27.636;2022-11-20T03:46:50;17.92;;;4.30;;
7669;SDS011;3877;42.562;27.636;2022-11-20T03:49:17;14.32;;;3.72;;
7669;SDS011;3877;42.562;27.636;2022-11-20T03:51:45;14.53;;;3.70;;
7669;SDS011;3877;42.562;27.636;2022-11-20T03:54:12;22.13;;;4.25;;
7669;SDS011;3877;42.562;27.636;2022-11-20T03:56:39;13.70;;;3.83;;
7669;SDS011;3877;42.562;27.636;2022-11-20T03:59:06;19.35;;;4.28;;
7669;SDS011;3877;42.562;27.636;2022-11-20T04:01:33;16.67;;;3.92;;
7669;SDS011;3877;42.562;27.636;2022-11-20T04:04:00;18.02;;;4.25;;
7669;SDS011;3877;42.562;27.636;2022-11-20T04:06:28;18.25;;;3.85;;
7669;SDS011;3877;42.562;27.636;2022-11-20T04:08:57;20.70;;;4.30;;
7669;SDS011;3877;42.562;27.636;2022-11-20T04:11:24;20.52;;;4.53;;
7669;SDS011;3877;42.562;27.636;2022-11-20T04:13:52;19.17;;;4.82;;
7669;SDS011;3877;42.562;27.636;2022-11-20T04:16:20;20.73;;;4.78;;
7669;SDS011;3877;42.562;27.636;2022-11-20T04:18:46;16.17;;;3.78;;
7669;SDS011;3877;42.562;27.636;2022-11-20T04:21:13;17.45;;;3.58;;
7669;SDS011;3877;42.562;27.636;2022-11-20T04:23:40;16.17;;;3.70;;
7669;SDS011;3877;42.562;27.636;2022-11-20T04:26:09;16.92;;;3.72;;
7669;SDS011;3877;42.562;27.636;2022-11-20T04:28:37;16.55;;;4.28;;
7669;SDS011;3877;42.562;27.636;2022-11-20T04:31:04;16.15;;;4.07;;
7669;SDS011;3877;42.562;27.636;2022-11-20T04:33:31;18.33;;;3.88;;
7669;SDS011;3877;42.562;27.636;2022-11-20T04:36:02;21.85;;;4.70;;
7669;SDS011;3877;42.562;27.636;2022-11-20T04:38:29;20.70;;;3.90;;
7669;SDS011;3877;42.562;27.636;2022-11-20T04:40:57;16.85;;;4.05;;
7669;SDS011;3877;42.562;27.636;2022-11-20T04:43:26;17.23;;;4.07;;
7669;SDS011;3877;42.562;27.636;2022-11-20T04:45:53;19.95;;;4.68;;
7669;SDS011;3877;42.562;27.636;2022-11-20T04:48:20;23.80;;;4.68;;
7669;SDS011;3877;42.562;27.636;2022-11-20T04:50:47;23.42;;;4.68;;
7669;SDS011;3877;42.562;27.636;2022-11-20T04:53:13;20.77;;;4.78;;
7669;SDS011;3877;42.562;27.636;2022-11-20T04:55:40;18.88;;;4.45;;
7669;SDS011;3877;42.562;27.636;2022-11-20T04:58:08;16.33;;;4.53;;
7669;SDS011;3877;42.562;27.636;2022-11-20T05:00:36;21.45;;;4.35;;
7669;SDS011;3877;42.562;27.636;2022-11-20T05:03:03;22.25;;;4.28;;
7669;SDS011;3877;42.562;27.636;2022-11-20T05:05:29;20.17;;;4.22;;
7669;SDS011;3877;42.562;27.636;2022-11-20T05:07:56;24.48;;;4.38;;
7669;SDS011;3877;42.562;27.636;2022-11-20T05:10:23;24.87;;;4.60;;
7669;SDS011;3877;42.562;27.636;2022-11-20T05:12:50;22.85;;;4.35;;
7669;SDS011;3877;42.562;27.636;2022-11-20T05:15:17;19.55;;;4.32;;
7669;SDS011;3877;42.562;27.636;2022-11-20T05:17:48;23.30;;;5.00;;
7669;SDS011;3877;42.562;27.636;2022-11-20T05:20:15;23.45;;;4.20;;
7669;SDS011;3877;42.562;27.636;2022-11-20T05:22:42;18.42;;;4.50;;
7669;SDS011;3877;42.562;27.636;2022-11-20T05:25:09;15.88;;;4.57;;
7669;SDS011;3877;42.562;27.636;2022-11-20T05:27:36;18.73;;;4.30;;
7669;SDS011;3877;42.562;27.636;2022-11-20T05:30:03;19.65;;;4.45;;
7669;SDS011;3877;42.562;27.636;2022-11-20T05:32:30;19.93;;;4.83;;
7669;SDS011;3877;42.562;27.636;2022-11-20T05:34:58;24.33;;;4.32;;
7669;SDS011;3877;42.562;27.636;2022-11-20T05:37:26;19.93;;;4.30;;
7669;SDS011;3877;42.562;27.636;2022-11-20T05:39:52;26.85;;;4.47;;
7669;SDS011;3877;42.562;27.636;2022-11-20T05:42:19;16.42;;;4.40;;
7669;SDS011;3877;42.562;27.636;2022-11-20T05:44:58;19.95;;;4.00;;
7669;SDS011;3877;42.562;27.636;2022-11-20T05:47:25;19.48;;;4.30;;
7669;SDS011;3877;42.562;27.636;2022-11-20T05:49:52;18.63;;;4.25;;
7669;SDS011;3877;42.562;27.636;2022-11-20T05:52:21;15.35;;;4.15;;
7669;SDS011;3877;42.562;27.636;2022-11-20T05:54:48;21.85;;;4.82;;
7669;SDS011;3877;42.562;27.636;2022-11-20T05:57:15;20.98;;;4.63;;
7669;SDS011;3877;42.562;27.636;2022-11-20T05:59:42;26.00;;;4.65;;
7669;SDS011;3877;42.562;27.636;2022-11-20T06:02:09;14.57;;;3.92;;
7669;SDS011;3877;42.562;27.636;2022-11-20T06:04:35;18.50;;;4.75;;
7669;SDS011;3877;42.562;27.636;2022-11-20T06:07:04;15.40;;;4.55;;
7669;SDS011;3877;42.562;27.636;2022-11-20T06:09:32;21.95;;;4.50;;
7669;SDS011;3877;42.562;27.636;2022-11-20T06:11:59;26.48;;;5.13;;
7669;SDS011;3877;42.562;27.636;2022-11-20T06:14:25;16.55;;;4.60;;
7669;SDS011;3877;42.562;27.636;2022-11-20T06:16:52;20.48;;;5.05;;
7669;SDS011;3877;42.562;27.636;2022-11-20T06:19:19;25.67;;;4.75;;
7669;SDS011;3877;42.562;27.636;2022-11-20T06:21:47;20.35;;;4.55;;
7669;SDS011;3877;42.562;27.636;2022-11-20T06:24:14;22.80;;;4.22;;
7669;SDS011;3877;42.562;27.636;2022-11-20T06:26:42;26.45;;;5.22;;
7669;SDS011;3877;42.562;27.636;2022-11-20T06:29:09;21.52;;;4.65;;
7669;SDS011;3877;42.562;27.636;2022-11-20T06:31:36;18.85;;;4.57;;
7669;SDS011;3877;42.562;27.636;2022-11-20T06:34:03;22.23;;;4.70;;
7669;SDS011;3877;42.562;27.636;2022-11-20T06:36:30;18.50;;;5.03;;
7669;SDS011;3877;42.562;27.636;2022-11-20T06:38:57;21.15;;;4.45;;
7669;SDS011;3877;42.562;27.636;2022-11-20T06:41:24;16.55;;;4.63;;
7669;SDS011;3877;42.562;27.636;2022-11-20T06:43:53;16.45;;;4.20;;
7669;SDS011;3877;42.562;27.636;2022-11-20T06:46:20;19.45;;;4.53;;
7669;SDS011;3877;42.562;27.636;2022-11-20T06:48:47;22.73;;;4.70;;
7669;SDS011;3877;42.562;27.636;2022-11-20T06:51:14;30.70;;;5.55;;
7669;SDS011;3877;42.562;27.636;2022-11-20T06:53:41;22.98;;;5.38;;
7669;SDS011;3877;42.562;27.636;2022-11-20T06:56:08;14.60;;;4.32;;
7669;SDS011;3877;42.562;27.636;2022-11-20T06:58:35;21.50;;;4.80;;
7669;SDS011;3877;42.562;27.636;2022-11-20T07:01:05;23.77;;;4.57;;
7669;SDS011;3877;42.562;27.636;2022-11-20T07:03:32;19.50;;;4.57;;
7669;SDS011;3877;42.562;27.636;2022-11-20T07:05:59;16.75;;;4.88;;
7669;SDS011;3877;42.562;27.636;2022-11-20T07:08:27;18.58;;;5.55;;
7669;SDS011;3877;42.562;27.636;2022-11-20T07:10:57;26.67;;;5.00;;
7669;SDS011;3877;42.562;27.636;2022-11-20T07:13:25;22.15;;;5.32;;
7669;SDS011;3877;42.562;27.636;2022-11-20T07:15:52;18.20;;;4.75;;
7669;SDS011;3877;42.562;27.636;2022-11-20T07:18:20;18.90;;;4.97;;
7669;SDS011;3877;42.562;27.636;2022-11-20T07:20:47;17.10;;;3.85;;
7669;SDS011;3877;42.562;27.636;2022-11-20T07:23:13;27.00;;;4.68;;
7669;SDS011;3877;42.562;27.636;2022-11-20T07:25:41;22.13;;;4.65;;
7669;SDS011;3877;42.562;27.636;2022-11-20T07:28:08;23.80;;;4.78;;
7669;SDS011;3877;42.562;27.636;2022-11-20T07:30:35;21.58;;;4.50;;
7669;SDS011;3877;42.562;27.636;2022-11-20T07:33:02;23.92;;;4.75;;
7669;SDS011;3877;42.562;27.636;2022-11-20T07:35:30;25.30;;;5.20;;
7669;SDS011;3877;42.562;27.636;2022-11-20T07:37:57;21.65;;;5.10;;
7669;SDS011;3877;42.562;27.636;2022-11-20T07:40:24;22.58;;;4.45;;
7669;SDS011;3877;42.562;27.636;2022-11-20T07:42:52;22.02;;;4.80;;
7669;SDS011;3877;42.562;27.636;2022-11-20T07:45:19;22.35;;;4.95;;
7669;SDS011;3877;42.562;27.636;2022-11-20T07:47:46;17.90;;;4.45;;
7669;SDS011;3877;42.562;27.636;2022-11-20T07:50:13;26.95;;;4.50;;
7669;SDS011;3877;42.562;27.636;2022-11-20T07:52:42;25.65;;;4.95;;
7669;SDS011;3877;42.562;27.636;2022-11-20T07:55:09;16.25;;;4.45;;
7669;SDS011;3877;42.562;27.636;2022-11-20T07:57:36;27.55;;;5.70;;
7669;SDS011;3877;42.562;27.636;2022-11-20T08:00:03;18.13;;;4.35;;
7669;SDS011;3877;42.562;27.636;2022-11-20T08:02:30;27.40;;;5.05;;
7669;SDS011;3877;42.562;27.636;2022-11-20T08:04:57;22.65;;;6.03;;
7669;SDS011;3877;42.562;27.636;2022-11-20T08:07:24;24.45;;;4.85;;
7669;SDS011;3877;42.562;27.636;2022-11-20T08:09:52;26.70;;;5.20;;
7669;SDS011;3877;42.562;27.636;2022-11-20T08:12:19;27.73;;;6.50;;
7669;SDS011;3877;42.562;27.636;2022-11-20T08:15:05;29.15;;;5.35;;
7669;SDS011;3877;42.562;27.636;2022-11-20T08:17:32;28.00;;;5.15;;
7669;SDS011;3877;42.562;27.636;2022-11-20T08:19:59;20.63;;;5.00;;
7669;SDS011;3877;42.562;27.636;2022-11-20T08:22:26;22.88;;;4.55;;
7669;SDS011;3877;42.562;27.636;2022-11-20T08:24:54;28.55;;;4.25;;
7669;SDS011;3877;42.562;27.636;2022-11-20T08:27:21;22.70;;;4.90;;
7669;SDS011;3877;42.562;27.636;2022-11-20T08:29:47;26.55;;;5.10;;
7669;SDS011;3877;42.562;27.636;2022-11-20T08:32:14;25.85;;;4.88;;
7669;SDS011;3877;42.562;27.636;2022-11-20T08:34:42;29.30;;;5.05;;
7669;SDS011;3877;42.562;27.636;2022-11-20T08:37:09;25.38;;;5.80;;
7669;SDS011;3877;42.562;27.636;2022-11-20T08:39:36;36.05;;;6.10;;
7669;SDS011;3877;42.562;27.636;2022-11-20T08:42:07;32.10;;;5.97;;
7669;SDS011;3877;42.562;27.636;2022-11-20T08:44:35;27.55;;;4.88;;
7669;SDS011;3877;42.562;27.636;2022-11-20T08:47:02;20.98;;;5.40;;
7669;SDS011;3877;42.562;27.636;2022-11-20T08:49:31;29.83;;;5.30;;
7669;SDS011;3877;42.562;27.636;2022-11-20T08:51:59;33.40;;;5.25;;
7669;SDS011;3877;42.562;27.636;2022-11-20T08:54:26;30.92;;;5.57;;
7669;SDS011;3877;42.562;27.636;2022-11-20T08:56:53;26.73;;;5.15;;
7669;SDS011;3877;42.562;27.636;2022-11-20T08:59:21;29.30;;;5.28;;
7669;SDS011;3877;42.562;27.636;2022-11-20T09:01:48;20.75;;;5.25;;
7669;SDS011;3877;42.562;27.636;2022-11-20T09:04:16;24.05;;;4.75;;
7669;SDS011;3877;42.562;27.636;2022-11-20T09:06:43;26.98;;;5.63;;
7669;SDS011;3877;42.562;27.636;2022-11-20T09:09:10;32.83;;;6.05;;
7669;SDS011;3877;42.562;27.636;2022-11-20T09:11:37;26.15;;;5.63;;
7669;SDS011;3877;42.562;27.636;2022-11-20T09:14:04;36.22;;;5.53;;
7669;SDS011;3877;42.562;27.636;2022-11-20T09:16:32;30.25;;;5.80;;
7669;SDS011;3877;42.562;27.636;2022-11-20T09:18:59;25.20;;;5.30;;
7669;SDS011;3877;42.562;27.636;2022-11-20T09:21:26;33.38;;;6.32;;
7669;SDS011;3877;42.562;27.636;2022-11-20T09:23:53;24.05;;;5.30;;
7669;SDS011;3877;42.562;27.636;2022-11-20T09:26:20;31.50;;;5.40;;
7669;SDS011;3877;42.562;27.636;2022-11-20T09:28:47;27.02;;;4.88;;
7669;SDS011;3877;42.562;27.636;2022-11-20T09:31:17;26.42;;;4.88;;
7669;SDS011;3877;42.562;27.636;2022-11-20T09:33:48;29.23;;;5.65;;
7669;SDS011;3877;42.562;27.636;2022-11-20T09:36:15;33.83;;;5.10;;
7669;SDS011;3877;42.562;27.636;2022-11-20T09:38:43;36.55;;;6.20;;
7669;SDS011;3877;42.562;27.636;2022-11-20T09:41:29;28.25;;;6.00;;
7669;SDS011;3877;42.562;27.636;2022-11-20T09:44:01;37.08;;;6.13;;
7669;SDS011;3877;42.562;27.636;2022-11-20T09:46:31;23.85;;;5.63;;
7669;SDS011;3877;42.562;27.636;2022-11-20T09:49:14;26.77;;;5.75;;
7669;SDS011;3877;42.562;27.636;2022-11-20T09:51:46;26.55;;;5.20;;
7669;SDS011;3877;42.562;27.636;2022-11-20T09:54:17;30.63;;;5.50;;
7669;SDS011;3877;42.562;27.636;2022-11-20T09:56:45;26.98;;;5.40;;
7669;SDS011;3877;42.562;27.636;2022-11-20T09:59:17;31.20;;;5.90;;
7669;SDS011;3877;42.562;27.636;2022-11-20T10:01:47;27.40;;;5.93;;
7669;SDS011;3877;42.562;27.636;2022-11-20T10:04:16;33.80;;;6.25;;
7669;SDS011;3877;42.562;27.636;2022-11-20T10:06:47;41.60;;;16.42;;
7669;SDS011;3877;42.562;27.636;2022-11-20T10:09:20;32.90;;;5.95;;
7669;SDS011;3877;42.562;27.636;2022-11-20T10:11:51;25.95;;;5.65;;
7669;SDS011;3877;42.562;27.636;2022-11-20T10:14:25;31.15;;;6.45;;
7669;SDS011;3877;42.562;27.636;2022-11-20T10:16:55;37.25;;;6.07;;
7669;SDS011;3877;42.562;27.636;2022-11-20T10:19:34;35.90;;;6.20;;
7669;SDS011;3877;42.562;27.636;2022-11-20T10:22:04;36.78;;;5.47;;
7669;SDS011;3877;42.562;27.636;2022-11-20T10:27:21;27.00;;;5.60;;
7669;SDS011;3877;42.562;27.636;2022-11-20T10:29:52;33.60;;;5.97;;
7669;SDS011;3877;42.562;27.636;2022-11-20T10:32:27;31.42;;;6.03;;
7669;SDS011;3877;42.562;27.636;2022-11-20T10:34:58;32.28;;;6.35;;
7669;SDS011;3877;42.562;27.636;2022-11-20T10:37:29;30.92;;;5.70;;
7669;SDS011;3877;42.562;27.636;2022-11-20T10:39:58;33.67;;;6.05;;
7669;SDS011;3877;42.562;27.636;2022-11-20T10:42:28;46.63;;;7.25;;
7669;SDS011;3877;42.562;27.636;2022-11-20T10:44:59;30.70;;;6.00;;
7669;SDS011;3877;42.562;27.636;2022-11-20T10:47:30;28.20;;;5.72;;
7669;SDS011;3877;42.562;27.636;2022-11-20T10:50:01;30.65;;;5.43;;
7669;SDS011;3877;42.562;27.636;2022-11-20T10:52:30;39.17;;;5.57;;
7669;SDS011;3877;42.562;27.636;2022-11-20T10:55:00;39.33;;;6.70;;
7669;SDS011;3877;42.562;27.636;2022-11-20T10:57:33;39.53;;;6.82;;
7669;SDS011;3877;42.562;27.636;2022-11-20T11:00:05;39.03;;;6.95;;
7669;SDS011;3877;42.562;27.636;2022-11-20T11:02:34;39.58;;;6.80;;
7669;SDS011;3877;42.562;27.636;2022-11-20T11:05:07;37.63;;;7.20;;
7669;SDS011;3877;42.562;27.636;2022-11-20T11:07:36;42.17;;;5.85;;
7669;SDS011;3877;42.562;27.636;2022-11-20T11:10:12;30.13;;;6.47;;
7669;SDS011;3877;42.562;27.636;2022-11-20T11:12:42;31.15;;;6.00;;
7669;SDS011;3877;42.562;27.636;2022-11-20T11:15:11;36.13;;;6.70;;
7669;SDS011;3877;42.562;27.636;2022-11-20T11:17:45;39.55;;;6.07;;
7669;SDS011;3877;42.562;27.636;2022-11-20T11:20:17;42.85;;;6.65;;
7669;SDS011;3877;42.562;27.636;2022-11-20T11:22:44;32.85;;;6.85;;
7669;SDS011;3877;42.562;27.636;2022-11-20T11:25:19;36.03;;;6.93;;
7669;SDS011;3877;42.562;27.636;2022-11-20T11:27:47;36.17;;;6.90;;
7669;SDS011;3877;42.562;27.636;2022-11-20T11:30:14;41.05;;;7.35;;
7669;SDS011;3877;42.562;27.636;2022-11-20T11:32:42;38.15;;;6.68;;
7669;SDS011;3877;42.562;27.636;2022-11-20T11:35:22;32.88;;;6.88;;
7669;SDS011;3877;42.562;27.636;2022-11-20T11:37:49;36.00;;;6.85;;
7669;SDS011;3877;42.562;27.636;2022-11-20T11:40:17;37.10;;;6.78;;
7669;SDS011;3877;42.562;27.636;2022-11-20T11:42:46;42.90;;;6.43;;
7669;SDS011;3877;42.562;27.636;2022-11-20T11:45:16;38.30;;;6.75;;
7669;SDS011;3877;42.562;27.636;2022-11-20T11:47:43;36.00;;;7.35;;
7669;SDS011;3877;42.562;27.636;2022-11-20T11:50:15;59.75;;;24.52;;
7669;SDS011;3877;42.562;27.636;2022-11-20T11:52:45;43.40;;;9.07;;
7669;SDS011;3877;42.562;27.636;2022-11-20T11:55:14;44.72;;;8.02;;
7669;SDS011;3877;42.562;27.636;2022-11-20T11:57:43;35.30;;;7.50;;
7669;SDS011;3877;42.562;27.636;2022-11-20T12:00:14;40.92;;;7.03;;
7669;SDS011;3877;42.562;27.636;2022-11-20T12:02:46;42.22;;;7.03;;
7669;SDS011;3877;42.562;27.636;2022-11-20T12:05:17;37.38;;;7.50;;
7669;SDS011;3877;42.562;27.636;2022-11-20T12:07:47;43.17;;;7.18;;
7669;SDS011;3877;42.562;27.636;2022-11-20T12:10:19;43.25;;;7.70;;
7669;SDS011;3877;42.562;27.636;2022-11-20T12:12:48;49.63;;;8.20;;
7669;SDS011;3877;42.562;27.636;2022-11-20T12:15:20;49.10;;;8.32;;
7669;SDS011;3877;42.562;27.636;2022-11-20T12:17:49;54.78;;;8.20;;
7669;SDS011;3877;42.562;27.636;2022-11-20T12:20:16;38.33;;;7.47;;
7669;SDS011;3877;42.562;27.636;2022-11-20T12:22:44;38.83;;;7.25;;
7669;SDS011;3877;42.562;27.636;2022-11-20T12:25:18;44.45;;;8.18;;
7669;SDS011;3877;42.562;27.636;2022-11-20T12:30:33;40.75;;;7.95;;
7669;SDS011;3877;42.562;27.636;2022-11-20T12:33:06;42.75;;;9.05;;
7669;SDS011;3877;42.562;27.636;2022-11-20T12:41:07;41.47;;;7.82;;
7669;SDS011;3877;42.562;27.636;2022-11-20T12:43:39;44.80;;;8.15;;
7669;SDS011;3877;42.562;27.636;2022-11-20T12:46:29;49.00;;;8.45;;
7669;SDS011;3877;42.562;27.636;2022-11-20T12:49:03;41.50;;;9.05;;
7669;SDS011;3877;42.562;27.636;2022-11-20T12:57:06;46.00;;;9.10;;
7669;SDS011;3877;42.562;27.636;2022-11-20T12:59:45;48.65;;;8.70;;
7669;SDS011;3877;42.562;27.636;2022-11-20T13:02:18;38.45;;;8.27;;
7669;SDS011;3877;42.562;27.636;2022-11-20T13:04:50;52.35;;;9.18;;
7669;SDS011;3877;42.562;27.636;2022-11-20T13:07:22;46.03;;;9.05;;
7669;SDS011;3877;42.562;27.636;2022-11-20T13:09:51;44.15;;;8.73;;
7669;SDS011;3877;42.562;27.636;2022-11-20T13:12:22;39.85;;;8.15;;
7669;SDS011;3877;42.562;27.636;2022-11-20T13:14:52;42.03;;;8.38;;
7669;SDS011;3877;42.562;27.636;2022-11-20T13:17:21;47.40;;;8.77;;
7669;SDS011;3877;42.562;27.636;2022-11-20T13:19:52;39.97;;;8.73;;
7669;SDS011;3877;42.562;27.636;2022-11-20T13:22:24;44.83;;;8.40;;
7669;SDS011;3877;42.562;27.636;2022-11-20T13:24:51;41.00;;;9.07;;
7669;SDS011;3877;42.562;27.636;2022-11-20T13:27:20;42.65;;;8.70;;
7669;SDS011;3877;42.562;27.636;2022-11-20T13:29:58;48.45;;;8.70;;
7669;SDS011;3877;42.562;27.636;2022-11-20T13:32:26;52.40;;;10.38;;
7669;SDS011;3877;42.562;27.636;2022-11-20T13:34:57;47.72;;;9.85;;
7669;SDS011;3877;42.562;27.636;2022-11-20T13:37:27;37.53;;;8.23;;
7669;SDS011;3877;42.562;27.636;2022-11-20T13:40:04;63.33;;;13.48;;
7669;SDS011;3877;42.562;27.636;2022-11-20T13:42:33;52.72;;;11.23;;
7669;SDS011;3877;42.562;27.636;2022-11-20T13:45:02;51.33;;;9.07;;
7669;SDS011;3877;42.562;27.636;2022-11-20T13:47:29;47.10;;;9.27;;
7669;SDS011;3877;42.562;27.636;2022-11-20T13:49:57;58.13;;;9.90;;
7669;SDS011;3877;42.562;27.636;2022-11-20T13:52:31;60.95;;;9.90;;
7669;SDS011;3877;42.562;27.636;2022-11-20T13:55:05;48.97;;;8.38;;
7669;SDS011;3877;42.562;27.636;2022-11-20T13:57:48;45.60;;;8.32;;
7669;SDS011;3877;42.562;27.636;2022-11-20T14:00:20;46.72;;;8.48;;
7669;SDS011;3877;42.562;27.636;2022-11-20T14:02:51;50.83;;;8.52;;
7669;SDS011;3877;42.562;27.636;2022-11-20T14:05:24;62.28;;;7.70;;
7669;SDS011;3877;42.562;27.636;2022-11-20T14:07:51;194.43;;;99.88;;
7669;SDS011;3877;42.562;27.636;2022-11-20T14:10:22;50.53;;;10.73;;
7669;SDS011;3877;42.562;27.636;2022-11-20T14:12:50;49.15;;;8.77;;
7669;SDS011;3877;42.562;27.636;2022-11-20T14:15:27;58.75;;;9.57;;
7669;SDS011;3877;42.562;27.636;2022-11-20T14:17:55;50.55;;;9.23;;
7669;SDS011;3877;42.562;27.636;2022-11-20T14:20:23;56.92;;;9.00;;
7669;SDS011;3877;42.562;27.636;2022-11-20T14:22:50;54.83;;;10.27;;
7669;SDS011;3877;42.562;27.636;2022-11-20T14:25:21;48.45;;;9.02;;
7669;SDS011;3877;42.562;27.636;2022-11-20T14:27:54;55.95;;;9.05;;
7669;SDS011;3877;42.562;27.636;2022-11-20T14:30:21;55.47;;;8.93;;
7669;SDS011;3877;42.562;27.636;2022-11-20T14:32:49;55.78;;;8.73;;
7669;SDS011;3877;42.562;27.636;2022-11-20T14:35:18;51.92;;;8.15;;
7669;SDS011;3877;42.562;27.636;2022-11-20T14:37:47;54.78;;;8.85;;
7669;SDS011;3877;42.562;27.636;2022-11-20T14:40:24;50.83;;;8.65;;
7669;SDS011;3877;42.562;27.636;2022-11-20T14:42:52;51.20;;;9.15;;
7669;SDS011;3877;42.562;27.636;2022-11-20T14:45:20;64.13;;;9.07;;
7669;SDS011;3877;42.562;27.636;2022-11-20T14:47:48;60.60;;;9.18;;
7669;SDS011;3877;42.562;27.636;2022-11-20T14:50:18;58.97;;;8.68;;
7669;SDS011;3877;42.562;27.636;2022-11-20T14:52:55;53.55;;;9.25;;
7669;SDS011;3877;42.562;27.636;2022-11-20T14:55:25;60.00;;;9.23;;
7669;SDS011;3877;42.562;27.636;2022-11-20T14:57:56;49.63;;;8.20;;
7669;SDS011;3877;42.562;27.636;2022-11-20T15:00:25;43.95;;;8.02;;
7669;SDS011;3877;42.562;27.636;2022-11-20T15:02:52;52.83;;;9.13;;
7669;SDS011;3877;42.562;27.636;2022-11-20T15:05:20;55.00;;;9.13;;
7669;SDS011;3877;42.562;27.636;2022-11-20T15:07:48;55.42;;;9.18;;
7669;SDS011;3877;42.562;27.636;2022-11-20T15:10:19;50.17;;;9.50;;
7669;SDS011;3877;42.562;27.636;2022-11-20T15:12:47;55.30;;;9.07;;